PTWTP SBCT-SBBR
Flight info
| Callsign | PTWTP |
|---|---|
| Flight time | 1h 27m |
| Altitude | 39000 |
| Route | GIKLU UZ5 VUDOT |
| Aircraft | A20N/M-SDE2E3FGHIRWXY/LB1 |
Departure
| Time | 2026-05-08 15:50 |
|---|---|
| Airport | Curitiba-Afonso Pena International Airport (SBCT) |
Arrival
| Time | 2026-05-08 17:17 |
|---|---|
| Airport | Presidente Juscelino Kubitschek International Airport (SBBR) |
| Time | Latitude | Longitude | Altitude | Speed | Heading |
|---|---|---|---|---|---|
| 2026-05-08 15:40 | -25.53668 | -49.17119 | 2995 ft | 0 kts | 225° |
| 2026-05-08 15:43 | -25.53666 | -49.17116 | 2995 ft | 1 kts | 226° |
| 2026-05-08 15:43 | -25.53662 | -49.17112 | 2995 ft | 1 kts | 226° |
| 2026-05-08 15:43 | -25.53658 | -49.17107 | 2995 ft | 1 kts | 227° |
| 2026-05-08 15:44 | -25.53653 | -49.17101 | 2995 ft | 1 kts | 227° |
| 2026-05-08 15:44 | -25.53647 | -49.17094 | 2995 ft | 1 kts | 228° |
| 2026-05-08 15:44 | -25.53642 | -49.17088 | 2995 ft | 1 kts | 218° |
| 2026-05-08 15:44 | -25.53636 | -49.17082 | 2995 ft | 1 kts | 200° |
| 2026-05-08 15:45 | -25.53628 | -49.17080 | 2995 ft | 1 kts | 183° |
| 2026-05-08 15:45 | -25.53620 | -49.17080 | 2995 ft | 1 kts | 165° |
| 2026-05-08 15:45 | -25.53612 | -49.17082 | 2995 ft | 1 kts | 154° |
| 2026-05-08 15:45 | -25.53605 | -49.17086 | 2995 ft | 1 kts | 141° |
| 2026-05-08 15:46 | -25.53603 | -49.17088 | 2995 ft | 0 kts | 139° |
| 2026-05-08 15:47 | -25.53604 | -49.17087 | 2995 ft | 2 kts | 137° |
| 2026-05-08 15:48 | -25.53615 | -49.17034 | 2995 ft | 0 kts | 90° |
| 2026-05-08 15:48 | -25.53614 | -49.17027 | 2995 ft | 10 kts | 87° |
| 2026-05-08 15:48 | -25.53611 | -49.16916 | 2995 ft | 7 kts | 89° |
| 2026-05-08 15:49 | -25.53611 | -49.16908 | 2995 ft | 0 kts | 89° |
| 2026-05-08 15:49 | -25.53611 | -49.16872 | 2995 ft | 11 kts | 91° |
| 2026-05-08 15:49 | -25.53594 | -49.16779 | 2994 ft | 12 kts | 29° |
| 2026-05-08 15:50 | -25.53518 | -49.16829 | 2994 ft | 19 kts | 314° |
| 2026-05-08 15:50 | -25.53195 | -49.17193 | 2997 ft | 117 kts | 315° |
| 2026-05-08 15:50 | -25.52452 | -49.17989 | 3430 ft | 170 kts | 314° |
| 2026-05-08 15:50 | -25.51687 | -49.19025 | 4678 ft | 178 kts | 304° |
| 2026-05-08 15:51 | -25.51064 | -49.20228 | 5912 ft | 186 kts | 300° |
| 2026-05-08 15:51 | -25.50445 | -49.21549 | 6974 ft | 201 kts | 300° |
| 2026-05-08 15:51 | -25.49750 | -49.23005 | 7793 ft | 226 kts | 301° |
| 2026-05-08 15:51 | -25.48966 | -49.24590 | 8715 ft | 241 kts | 301° |
| 2026-05-08 15:52 | -25.47998 | -49.26125 | 9951 ft | 246 kts | 316° |
| 2026-05-08 15:52 | -25.46540 | -49.27210 | 10802 ft | 267 kts | 333° |
| 2026-05-08 15:52 | -25.44624 | -49.27707 | 11323 ft | 302 kts | 353° |
| 2026-05-08 15:52 | -25.42472 | -49.27324 | 11953 ft | 333 kts | 15° |
| 2026-05-08 15:53 | -25.40350 | -49.26181 | 12918 ft | 344 kts | 21° |
| 2026-05-08 15:53 | -25.38188 | -49.24955 | 13893 ft | 352 kts | 21° |
| 2026-05-08 15:53 | -25.35991 | -49.23719 | 14818 ft | 356 kts | 20° |
| 2026-05-08 15:53 | -25.33690 | -49.22774 | 15829 ft | 351 kts | 8° |
| 2026-05-08 15:54 | -25.31284 | -49.22398 | 16772 ft | 348 kts | 357° |
| 2026-05-08 15:54 | -25.28873 | -49.22565 | 17672 ft | 348 kts | 349° |
| 2026-05-08 15:54 | -25.26453 | -49.22864 | 18545 ft | 352 kts | 349° |
| 2026-05-08 15:54 | -25.23998 | -49.23161 | 19250 ft | 358 kts | 350° |
| 2026-05-08 15:55 | -25.21502 | -49.23458 | 19971 ft | 364 kts | 350° |
| 2026-05-08 15:55 | -25.16380 | -49.24057 | 21396 ft | 375 kts | 349° |
| 2026-05-08 15:55 | -25.13764 | -49.24362 | 22107 ft | 380 kts | 349° |
| 2026-05-08 15:56 | -25.11147 | -49.24666 | 22804 ft | 386 kts | 349° |
| 2026-05-08 15:56 | -25.08425 | -49.24983 | 23498 ft | 391 kts | 349° |
| 2026-05-08 15:56 | -25.05741 | -49.25294 | 24104 ft | 394 kts | 349° |
| 2026-05-08 15:56 | -25.03000 | -49.25609 | 24799 ft | 395 kts | 349° |
| 2026-05-08 15:57 | -25.00244 | -49.25928 | 25402 ft | 399 kts | 349° |
| 2026-05-08 15:57 | -24.97469 | -49.26250 | 26006 ft | 402 kts | 349° |
| 2026-05-08 15:57 | -24.94677 | -49.26573 | 26584 ft | 406 kts | 348° |
| 2026-05-08 15:57 | -24.91850 | -49.26902 | 27174 ft | 409 kts | 348° |
| 2026-05-08 15:58 | -24.89008 | -49.27232 | 27797 ft | 412 kts | 348° |
| 2026-05-08 15:58 | -24.86146 | -49.27565 | 28344 ft | 415 kts | 348° |
| 2026-05-08 15:58 | -24.83261 | -49.27900 | 28853 ft | 419 kts | 348° |
| 2026-05-08 15:58 | -24.80347 | -49.28238 | 29430 ft | 422 kts | 348° |
| 2026-05-08 15:59 | -24.77419 | -49.28577 | 29979 ft | 424 kts | 348° |
| 2026-05-08 15:59 | -24.74469 | -49.28919 | 30452 ft | 427 kts | 348° |
| 2026-05-08 15:59 | -24.71502 | -49.29263 | 30944 ft | 430 kts | 348° |
| 2026-05-08 15:59 | -24.68553 | -49.29603 | 31482 ft | 430 kts | 348° |
| 2026-05-08 16:00 | -24.65579 | -49.29945 | 32102 ft | 429 kts | 348° |
| 2026-05-08 16:00 | -24.62617 | -49.30286 | 32720 ft | 428 kts | 348° |
| 2026-05-08 16:00 | -24.59664 | -49.30627 | 33343 ft | 426 kts | 348° |
| 2026-05-08 16:00 | -24.56724 | -49.30966 | 33941 ft | 424 kts | 348° |
| 2026-05-08 16:01 | -24.53789 | -49.31305 | 34441 ft | 423 kts | 348° |
| 2026-05-08 16:01 | -24.50865 | -49.31642 | 34928 ft | 422 kts | 348° |
| 2026-05-08 16:01 | -24.47945 | -49.31979 | 35390 ft | 422 kts | 348° |
| 2026-05-08 16:01 | -24.45027 | -49.32316 | 35861 ft | 421 kts | 348° |
| 2026-05-08 16:02 | -24.42118 | -49.32651 | 36308 ft | 420 kts | 347° |
| 2026-05-08 16:02 | -24.39211 | -49.32986 | 36753 ft | 419 kts | 347° |
| 2026-05-08 16:02 | -24.36312 | -49.33319 | 37162 ft | 419 kts | 347° |
| 2026-05-08 16:02 | -24.33447 | -49.33649 | 37574 ft | 418 kts | 347° |
| 2026-05-08 16:03 | -24.30547 | -49.33983 | 37977 ft | 418 kts | 347° |
| 2026-05-08 16:03 | -24.27657 | -49.34316 | 38382 ft | 417 kts | 347° |
| 2026-05-08 16:03 | -24.24765 | -49.34648 | 38747 ft | 416 kts | 347° |
| 2026-05-08 16:03 | -24.21887 | -49.34977 | 38902 ft | 414 kts | 347° |
| 2026-05-08 16:04 | -24.16152 | -49.35637 | 38944 ft | 415 kts | 347° |
| 2026-05-08 16:04 | -24.10410 | -49.36296 | 38941 ft | 414 kts | 347° |
| 2026-05-08 16:05 | -24.04700 | -49.36952 | 38939 ft | 416 kts | 347° |
| 2026-05-08 16:05 | -23.98927 | -49.37613 | 38936 ft | 417 kts | 347° |
| 2026-05-08 16:06 | -23.93151 | -49.38273 | 38931 ft | 417 kts | 347° |
| 2026-05-08 16:06 | -23.87356 | -49.38935 | 38935 ft | 418 kts | 347° |
| 2026-05-08 16:07 | -23.81557 | -49.39598 | 38937 ft | 419 kts | 347° |
| 2026-05-08 16:07 | -23.75746 | -49.40260 | 38938 ft | 419 kts | 347° |
| 2026-05-08 16:08 | -23.69968 | -49.40920 | 38933 ft | 420 kts | 347° |
| 2026-05-08 16:08 | -23.64154 | -49.41583 | 38932 ft | 420 kts | 347° |
| 2026-05-08 16:09 | -23.59313 | -49.42134 | 38928 ft | 421 kts | 347° |
| 2026-05-08 16:09 | -23.52490 | -49.42911 | 38924 ft | 421 kts | 347° |
| 2026-05-08 16:10 | -23.46663 | -49.43509 | 38921 ft | 425 kts | 350° |
| 2026-05-08 16:10 | -23.40692 | -49.43314 | 38925 ft | 435 kts | 359° |
| 2026-05-08 16:11 | -23.34684 | -49.42112 | 38929 ft | 442 kts | 6° |
| 2026-05-08 16:11 | -23.28659 | -49.40620 | 38922 ft | 443 kts | 5° |
| 2026-05-08 16:12 | -23.22632 | -49.39148 | 38925 ft | 444 kts | 5° |
| 2026-05-08 16:12 | -23.16597 | -49.37589 | 38925 ft | 447 kts | 7° |
| 2026-05-08 16:13 | -23.10572 | -49.35890 | 38924 ft | 448 kts | 7° |
| 2026-05-08 16:13 | -23.04521 | -49.34204 | 38924 ft | 448 kts | 7° |
| 2026-05-08 16:14 | -22.98507 | -49.32546 | 38924 ft | 449 kts | 7° |
| 2026-05-08 16:14 | -22.92441 | -49.30879 | 38923 ft | 450 kts | 7° |
| 2026-05-08 16:15 | -22.86369 | -49.29210 | 38925 ft | 450 kts | 7° |
| 2026-05-08 16:15 | -22.80290 | -49.27538 | 38924 ft | 451 kts | 7° |
| 2026-05-08 16:16 | -22.75224 | -49.26145 | 38927 ft | 451 kts | 7° |
| 2026-05-08 16:16 | -22.69131 | -49.24472 | 38921 ft | 452 kts | 7° |
| 2026-05-08 16:17 | -22.63025 | -49.22798 | 38927 ft | 452 kts | 7° |
| 2026-05-08 16:17 | -22.56917 | -49.21124 | 38929 ft | 453 kts | 7° |
| 2026-05-08 16:18 | -22.50807 | -49.19402 | 38950 ft | 454 kts | 8° |
| 2026-05-08 16:18 | -22.44691 | -49.17650 | 38951 ft | 455 kts | 8° |
| 2026-05-08 16:19 | -22.38607 | -49.15917 | 38964 ft | 455 kts | 7° |
| 2026-05-08 16:19 | -22.32452 | -49.14367 | 38967 ft | 454 kts | 6° |
| 2026-05-08 16:20 | -22.26282 | -49.12878 | 38963 ft | 454 kts | 6° |
| 2026-05-08 16:20 | -22.20104 | -49.11361 | 38955 ft | 455 kts | 6° |
| 2026-05-08 16:21 | -22.13923 | -49.09833 | 38948 ft | 455 kts | 6° |
| 2026-05-08 16:21 | -22.07737 | -49.08304 | 38935 ft | 456 kts | 6° |
| 2026-05-08 16:22 | -22.01590 | -49.06786 | 38934 ft | 457 kts | 6° |
| 2026-05-08 16:22 | -21.95390 | -49.05258 | 38926 ft | 457 kts | 6° |
| 2026-05-08 16:23 | -21.89181 | -49.03728 | 38930 ft | 458 kts | 6° |
| 2026-05-08 16:23 | -21.82959 | -49.02197 | 38926 ft | 458 kts | 6° |
| 2026-05-08 16:24 | -21.76731 | -49.00664 | 38931 ft | 459 kts | 7° |
| 2026-05-08 16:24 | -21.70499 | -48.99133 | 38927 ft | 460 kts | 7° |
| 2026-05-08 16:25 | -21.64293 | -48.97702 | 38930 ft | 457 kts | 2° |
| 2026-05-08 16:25 | -21.57988 | -48.96700 | 38929 ft | 458 kts | 2° |
| 2026-05-08 16:26 | -21.51678 | -48.95690 | 38935 ft | 459 kts | 2° |
| 2026-05-08 16:26 | -21.45349 | -48.94673 | 38937 ft | 460 kts | 2° |
| 2026-05-08 16:27 | -21.39013 | -48.93656 | 38943 ft | 460 kts | 2° |
| 2026-05-08 16:27 | -21.32710 | -48.92645 | 38941 ft | 461 kts | 2° |
| 2026-05-08 16:28 | -21.26339 | -48.91625 | 38942 ft | 462 kts | 2° |
| 2026-05-08 16:28 | -21.19962 | -48.90604 | 38943 ft | 463 kts | 2° |
| 2026-05-08 16:29 | -21.13614 | -48.89590 | 38950 ft | 463 kts | 2° |
| 2026-05-08 16:29 | -21.07224 | -48.88569 | 38951 ft | 464 kts | 2° |
| 2026-05-08 16:30 | -21.00860 | -48.87552 | 38952 ft | 465 kts | 2° |
| 2026-05-08 16:30 | -20.94436 | -48.86528 | 38954 ft | 465 kts | 2° |
| 2026-05-08 16:31 | -20.88020 | -48.85506 | 38960 ft | 466 kts | 2° |
| 2026-05-08 16:31 | -20.81640 | -48.84490 | 38954 ft | 467 kts | 2° |
| 2026-05-08 16:32 | -20.75212 | -48.83468 | 38954 ft | 467 kts | 2° |
| 2026-05-08 16:32 | -20.68766 | -48.82443 | 38952 ft | 467 kts | 2° |
| 2026-05-08 16:33 | -20.62330 | -48.81627 | 38956 ft | 464 kts | 359° |
| 2026-05-08 16:33 | -20.55894 | -48.81020 | 38944 ft | 465 kts | 359° |
| 2026-05-08 16:34 | -20.49466 | -48.80374 | 38944 ft | 466 kts | 359° |
| 2026-05-08 16:34 | -20.43014 | -48.79701 | 38946 ft | 466 kts | 359° |
| 2026-05-08 16:35 | -20.36529 | -48.79021 | 38948 ft | 467 kts | 359° |
| 2026-05-08 16:35 | -20.30102 | -48.78348 | 38945 ft | 467 kts | 360° |
| 2026-05-08 16:36 | -20.23625 | -48.77670 | 38949 ft | 468 kts | 360° |
| 2026-05-08 16:36 | -20.17120 | -48.76988 | 38946 ft | 468 kts | 360° |
| 2026-05-08 16:37 | -20.10667 | -48.76312 | 38948 ft | 469 kts | 360° |
| 2026-05-08 16:37 | -20.04170 | -48.75632 | 38948 ft | 469 kts | 360° |
| 2026-05-08 16:38 | -19.97652 | -48.74950 | 38947 ft | 470 kts | 360° |
| 2026-05-08 16:38 | -19.91143 | -48.74270 | 38947 ft | 470 kts | 360° |
| 2026-05-08 16:39 | -19.84620 | -48.73590 | 38951 ft | 470 kts | 360° |
| 2026-05-08 16:39 | -19.78134 | -48.72913 | 38948 ft | 471 kts | 360° |
| 2026-05-08 16:40 | -19.71608 | -48.72233 | 38956 ft | 471 kts | 360° |
| 2026-05-08 16:40 | -19.65063 | -48.71552 | 38959 ft | 472 kts | 360° |
| 2026-05-08 16:41 | -19.58533 | -48.70872 | 38958 ft | 472 kts | 360° |
| 2026-05-08 16:42 | -19.48706 | -48.69851 | 38967 ft | 473 kts | 360° |
| 2026-05-08 16:42 | -19.42145 | -48.69170 | 38966 ft | 473 kts | 360° |
| 2026-05-08 16:43 | -19.35628 | -48.68494 | 38968 ft | 474 kts | 360° |
| 2026-05-08 16:43 | -19.29049 | -48.67812 | 38970 ft | 474 kts | 0° |
| 2026-05-08 16:44 | -19.22469 | -48.67130 | 38974 ft | 475 kts | 0° |
| 2026-05-08 16:44 | -19.15916 | -48.66454 | 38976 ft | 475 kts | 360° |
| 2026-05-08 16:45 | -19.09326 | -48.65849 | 38979 ft | 475 kts | 359° |
| 2026-05-08 16:45 | -19.02737 | -48.65264 | 38976 ft | 475 kts | 359° |
| 2026-05-08 16:46 | -18.96130 | -48.64667 | 38982 ft | 476 kts | 359° |
| 2026-05-08 16:46 | -18.89534 | -48.64069 | 38975 ft | 476 kts | 359° |
| 2026-05-08 16:47 | -18.82974 | -48.63474 | 38983 ft | 476 kts | 359° |
| 2026-05-08 16:47 | -18.76361 | -48.62874 | 38984 ft | 477 kts | 360° |
| 2026-05-08 16:48 | -18.69736 | -48.62274 | 38984 ft | 477 kts | 360° |
| 2026-05-08 16:48 | -18.63112 | -48.61675 | 38982 ft | 478 kts | 360° |
| 2026-05-08 16:49 | -18.56486 | -48.61076 | 38986 ft | 478 kts | 360° |
| 2026-05-08 16:49 | -18.49857 | -48.60477 | 38986 ft | 478 kts | 360° |
| 2026-05-08 16:50 | -18.43262 | -48.59881 | 38974 ft | 479 kts | 360° |
| 2026-05-08 16:50 | -18.36603 | -48.59281 | 38979 ft | 479 kts | 0° |
| 2026-05-08 16:51 | -18.29963 | -48.58371 | 38973 ft | 484 kts | 8° |
| 2026-05-08 16:51 | -18.23499 | -48.56407 | 38978 ft | 488 kts | 14° |
| 2026-05-08 16:52 | -18.17017 | -48.54246 | 38981 ft | 488 kts | 14° |
| 2026-05-08 16:52 | -18.10533 | -48.52099 | 38978 ft | 488 kts | 14° |
| 2026-05-08 16:53 | -18.00798 | -48.48880 | 38977 ft | 488 kts | 14° |
| 2026-05-08 16:53 | -17.94311 | -48.46735 | 38985 ft | 489 kts | 14° |
| 2026-05-08 16:54 | -17.87819 | -48.44591 | 38985 ft | 489 kts | 14° |
| 2026-05-08 16:54 | -17.81362 | -48.42460 | 38983 ft | 489 kts | 14° |
| 2026-05-08 16:55 | -17.74856 | -48.40315 | 38992 ft | 490 kts | 14° |
| 2026-05-08 16:55 | -17.68346 | -48.38171 | 38990 ft | 490 kts | 14° |
| 2026-05-08 16:56 | -17.61842 | -48.36029 | 38988 ft | 490 kts | 14° |
| 2026-05-08 16:56 | -17.55328 | -48.33886 | 38990 ft | 490 kts | 14° |
| 2026-05-08 16:57 | -17.48816 | -48.31745 | 38993 ft | 490 kts | 14° |
| 2026-05-08 16:57 | -17.42348 | -48.29622 | 38989 ft | 490 kts | 14° |
| 2026-05-08 16:58 | -17.35835 | -48.27484 | 38993 ft | 490 kts | 14° |
| 2026-05-08 16:58 | -17.29318 | -48.25347 | 38992 ft | 490 kts | 14° |
| 2026-05-08 16:59 | -17.22805 | -48.23213 | 38996 ft | 490 kts | 14° |
| 2026-05-08 16:59 | -17.16293 | -48.21080 | 38989 ft | 490 kts | 15° |
| 2026-05-08 17:00 | -17.13044 | -48.20016 | 38781 ft | 488 kts | 15° |
| 2026-05-08 17:00 | -17.09800 | -48.18954 | 38084 ft | 490 kts | 15° |
| 2026-05-08 17:00 | -17.06542 | -48.17891 | 37167 ft | 493 kts | 15° |
| 2026-05-08 17:00 | -17.03251 | -48.16819 | 36138 ft | 497 kts | 15° |
| 2026-05-08 17:01 | -16.99937 | -48.15739 | 35143 ft | 501 kts | 16° |
| 2026-05-08 17:01 | -16.96603 | -48.14652 | 34223 ft | 502 kts | 17° |
| 2026-05-08 17:01 | -16.93266 | -48.13564 | 33203 ft | 502 kts | 17° |
| 2026-05-08 17:01 | -16.89933 | -48.12477 | 32147 ft | 502 kts | 17° |
| 2026-05-08 17:02 | -16.86596 | -48.11387 | 31080 ft | 502 kts | 17° |
| 2026-05-08 17:02 | -16.83260 | -48.10299 | 30004 ft | 502 kts | 17° |
| 2026-05-08 17:02 | -16.79869 | -48.09419 | 28808 ft | 502 kts | 8° |
| 2026-05-08 17:02 | -16.77580 | -48.09171 | 28188 ft | 498 kts | 2° |
| 2026-05-08 17:03 | -16.74148 | -48.09294 | 27306 ft | 490 kts | 352° |
| 2026-05-08 17:03 | -16.69753 | -48.10188 | 26162 ft | 482 kts | 347° |
| 2026-05-08 17:03 | -16.67549 | -48.10692 | 25568 ft | 479 kts | 347° |
| 2026-05-08 17:03 | -16.63265 | -48.11669 | 24458 ft | 472 kts | 347° |
| 2026-05-08 17:04 | -16.60072 | -48.12394 | 23674 ft | 467 kts | 347° |
| 2026-05-08 17:04 | -16.56911 | -48.13110 | 22802 ft | 462 kts | 348° |
| 2026-05-08 17:04 | -16.53797 | -48.13813 | 21987 ft | 454 kts | 348° |
| 2026-05-08 17:04 | -16.51721 | -48.14282 | 21459 ft | 450 kts | 348° |
| 2026-05-08 17:05 | -16.47706 | -48.15189 | 20425 ft | 442 kts | 348° |
| 2026-05-08 17:05 | -16.45685 | -48.15645 | 19889 ft | 438 kts | 348° |
| 2026-05-08 17:05 | -16.42760 | -48.16305 | 19160 ft | 432 kts | 348° |
| 2026-05-08 17:05 | -16.39866 | -48.16958 | 18840 ft | 416 kts | 348° |
| 2026-05-08 17:06 | -16.37118 | -48.17578 | 18613 ft | 391 kts | 348° |
| 2026-05-08 17:06 | -16.34544 | -48.18158 | 18408 ft | 366 kts | 348° |
| 2026-05-08 17:06 | -16.32125 | -48.18702 | 18231 ft | 345 kts | 348° |
| 2026-05-08 17:06 | -16.29851 | -48.19214 | 18050 ft | 324 kts | 348° |
| 2026-05-08 17:07 | -16.27702 | -48.19696 | 17745 ft | 311 kts | 349° |
| 2026-05-08 17:07 | -16.25585 | -48.20169 | 17108 ft | 311 kts | 349° |
| 2026-05-08 17:07 | -16.23490 | -48.20637 | 16454 ft | 306 kts | 349° |
| 2026-05-08 17:07 | -16.21424 | -48.21099 | 15803 ft | 301 kts | 349° |
| 2026-05-08 17:08 | -16.19390 | -48.21555 | 15163 ft | 296 kts | 349° |
| 2026-05-08 17:08 | -16.17419 | -48.21996 | 14570 ft | 290 kts | 349° |
| 2026-05-08 17:08 | -16.15442 | -48.22257 | 13962 ft | 283 kts | 1° |
| 2026-05-08 17:08 | -16.13511 | -48.22024 | 13317 ft | 277 kts | 15° |
| 2026-05-08 17:09 | -16.11670 | -48.21529 | 12708 ft | 270 kts | 15° |
| 2026-05-08 17:09 | -16.09854 | -48.21052 | 12029 ft | 268 kts | 14° |
| 2026-05-08 17:09 | -16.08052 | -48.20588 | 11383 ft | 265 kts | 14° |
| 2026-05-08 17:09 | -16.06276 | -48.20133 | 10747 ft | 262 kts | 14° |
| 2026-05-08 17:10 | -16.04522 | -48.19685 | 10184 ft | 257 kts | 13° |
| 2026-05-08 17:10 | -16.02781 | -48.19240 | 9541 ft | 256 kts | 13° |
| 2026-05-08 17:10 | -16.01060 | -48.18799 | 8876 ft | 254 kts | 13° |
| 2026-05-08 17:10 | -15.99339 | -48.18421 | 8201 ft | 253 kts | 7° |
| 2026-05-08 17:11 | -15.97596 | -48.18372 | 7611 ft | 249 kts | 356° |
| 2026-05-08 17:11 | -15.95888 | -48.18505 | 7192 ft | 241 kts | 357° |
| 2026-05-08 17:11 | -15.94298 | -48.18462 | 7017 ft | 218 kts | 16° |
| 2026-05-08 17:11 | -15.93029 | -48.17752 | 6841 ft | 206 kts | 43° |
| 2026-05-08 17:12 | -15.92200 | -48.16562 | 6573 ft | 204 kts | 58° |
| 2026-05-08 17:12 | -15.91500 | -48.15307 | 6315 ft | 197 kts | 58° |
| 2026-05-08 17:12 | -15.90813 | -48.14092 | 5847 ft | 196 kts | 57° |
| 2026-05-08 17:12 | -15.90094 | -48.12866 | 5599 ft | 211 kts | 57° |
| 2026-05-08 17:13 | -15.89443 | -48.11593 | 5549 ft | 190 kts | 67° |
| 2026-05-08 17:13 | -15.89139 | -48.10328 | 5455 ft | 175 kts | 78° |
| 2026-05-08 17:13 | -15.89028 | -48.09135 | 5316 ft | 154 kts | 83° |
| 2026-05-08 17:13 | -15.88968 | -48.08064 | 5178 ft | 151 kts | 83° |
| 2026-05-08 17:14 | -15.88888 | -48.06871 | 5227 ft | 177 kts | 85° |
| 2026-05-08 17:14 | -15.88809 | -48.05598 | 5188 ft | 170 kts | 83° |
| 2026-05-08 17:14 | -15.88739 | -48.04462 | 5084 ft | 145 kts | 83° |
| 2026-05-08 17:14 | -15.88675 | -48.03477 | 5050 ft | 135 kts | 81° |
| 2026-05-08 17:15 | -15.88610 | -48.02504 | 4984 ft | 133 kts | 83° |
| 2026-05-08 17:15 | -15.88551 | -48.01560 | 4905 ft | 127 kts | 80° |
| 2026-05-08 17:15 | -15.88490 | -48.00638 | 4791 ft | 131 kts | 80° |
| 2026-05-08 17:15 | -15.88433 | -47.99691 | 4633 ft | 130 kts | 83° |
| 2026-05-08 17:16 | -15.88368 | -47.98737 | 4466 ft | 133 kts | 81° |
| 2026-05-08 17:16 | -15.88310 | -47.97779 | 4307 ft | 134 kts | 83° |
| 2026-05-08 17:16 | -15.88247 | -47.96813 | 4130 ft | 133 kts | 85° |
| 2026-05-08 17:16 | -15.88189 | -47.95877 | 3938 ft | 125 kts | 82° |
| 2026-05-08 17:17 | -15.88133 | -47.95019 | 3758 ft | 117 kts | 85° |
| 2026-05-08 17:17 | -15.88077 | -47.94176 | 3582 ft | 117 kts | 84° |
| 2026-05-08 17:17 | -15.88024 | -47.93368 | 3486 ft | 92 kts | 85° |
| 2026-05-08 17:17 | -15.88003 | -47.93018 | 3477 ft | 8 kts | 88° |
| 2026-05-08 17:18 | -15.87999 | -47.92923 | 3475 ft | 20 kts | 86° |
| 2026-05-08 17:18 | -15.87985 | -47.92732 | 3471 ft | 33 kts | 85° |
| 2026-05-08 17:18 | -15.87967 | -47.92457 | 3466 ft | 41 kts | 87° |
| 2026-05-08 17:18 | -15.87948 | -47.92148 | 3461 ft | 43 kts | 86° |
| 2026-05-08 17:19 | -15.87919 | -47.91907 | 3453 ft | 31 kts | 72° |
| 2026-05-08 17:19 | -15.87814 | -47.91709 | 3446 ft | 30 kts | 57° |
| 2026-05-08 17:19 | -15.87708 | -47.91562 | 3443 ft | 22 kts | 31° |
| 2026-05-08 17:19 | -15.87552 | -47.91561 | 3446 ft | 24 kts | 360° |
| 2026-05-08 17:20 | -15.87406 | -47.91570 | 3447 ft | 21 kts | 356° |
| 2026-05-08 17:20 | -15.87263 | -47.91581 | 3452 ft | 21 kts | 356° |
| 2026-05-08 17:20 | -15.87115 | -47.91589 | 3455 ft | 18 kts | 354° |
| 2026-05-08 17:20 | -15.87056 | -47.91643 | 3457 ft | 12 kts | 270° |
| 2026-05-08 17:21 | -15.87062 | -47.91738 | 3457 ft | 11 kts | 267° |
| 2026-05-08 17:21 | -15.87068 | -47.91812 | 3458 ft | 4 kts | 250° |
| 2026-05-08 17:21 | -15.87110 | -47.91819 | 3457 ft | 7 kts | 191° |
| 2026-05-08 17:21 | -15.87126 | -47.91824 | 3456 ft | 0 kts | 196° |